createdAt,value
2018-04-11T00:01:00.216Z,90.50
2018-04-11T00:04:03.562Z,90.60
2018-04-11T00:07:07.693Z,90.50
2018-04-11T00:10:11.069Z,90.60
2018-04-11T00:13:14.433Z,90.60
2018-04-11T00:16:17.783Z,90.60
2018-04-11T00:19:21.157Z,90.60
2018-04-11T00:22:24.517Z,90.60
2018-04-11T00:25:28.733Z,90.80
2018-04-11T00:28:32.873Z,91.00
2018-04-11T00:31:36.233Z,91.00
2018-04-11T00:34:39.576Z,91.30
2018-04-11T00:37:42.939Z,91.10
2018-04-11T00:40:47.073Z,91.30
2018-04-11T00:43:50.441Z,91.30
2018-04-11T00:46:53.865Z,91.40
2018-04-11T00:49:57.236Z,91.40
2018-04-11T00:53:18.496Z,91.50
2018-04-11T00:56:21.846Z,91.60
2018-04-11T00:59:25.969Z,91.70
2018-04-11T01:02:29.334Z,91.70
2018-04-11T01:05:32.783Z,91.70
2018-04-11T01:08:37.121Z,91.70
2018-04-11T01:11:40.483Z,91.70
2018-04-11T01:14:43.886Z,91.80
2018-04-11T01:17:48.824Z,91.80
2018-04-11T01:20:52.175Z,91.80
2018-04-11T01:23:55.527Z,91.80
2018-04-11T01:26:58.874Z,91.80
2018-04-11T01:30:02.353Z,91.80
2018-04-11T01:33:05.755Z,91.90
2018-04-11T01:36:09.107Z,91.90
2018-04-11T01:39:12.463Z,91.80
2018-04-11T01:42:15.809Z,92.00
2018-04-11T01:45:19.253Z,91.90
2018-04-11T01:48:22.643Z,91.90
2018-04-11T01:51:26.818Z,92.00
2018-04-11T01:54:30.179Z,92.00
2018-04-11T01:57:33.587Z,92.10
2018-04-11T02:00:36.948Z,92.10
2018-04-11T02:03:41.079Z,92.20
2018-04-11T02:06:45.181Z,92.20
2018-04-11T02:09:49.299Z,92.20
2018-04-11T02:12:53.421Z,92.30
2018-04-11T02:15:57.753Z,92.20
2018-04-11T02:19:01.136Z,92.20
2018-04-11T02:22:05.280Z,92.40
2018-04-11T02:25:08.633Z,92.40
2018-04-11T02:28:11.993Z,92.30
2018-04-11T02:31:15.347Z,92.30
2018-04-11T02:34:19.486Z,92.70
2018-04-11T02:37:22.950Z,92.40
2018-04-11T02:40:27.064Z,92.50
2018-04-11T02:43:30.501Z,92.50
2018-04-11T02:46:34.641Z,92.60
2018-04-11T02:49:37.993Z,92.60
2018-04-11T02:52:41.363Z,92.70
2018-04-11T02:55:44.937Z,92.60
2018-04-11T02:58:48.319Z,92.60
2018-04-11T03:01:51.668Z,92.70
2018-04-11T03:04:55.094Z,92.70
2018-04-11T03:07:59.252Z,92.70
2018-04-11T03:11:02.630Z,92.70
2018-04-11T03:14:06.739Z,92.80
2018-04-11T03:17:10.881Z,92.70
2018-04-11T03:20:14.227Z,92.70
2018-04-11T03:23:17.584Z,92.90
2018-04-11T03:26:20.935Z,92.90
2018-04-11T03:29:25.801Z,93.00
2018-04-11T03:32:29.161Z,92.90
2018-04-11T03:35:33.272Z,92.90
2018-04-11T03:38:37.387Z,92.90
2018-04-11T03:41:40.733Z,92.90
2018-04-11T03:44:44.092Z,92.90
2018-04-11T03:47:49.023Z,92.90
2018-04-11T03:50:53.888Z,93.00
2018-04-11T03:53:58.003Z,93.00
2018-04-11T03:57:02.128Z,93.00
2018-04-11T04:00:05.516Z,92.90
2018-04-11T04:03:09.684Z,92.90
2018-04-11T04:06:13.062Z,92.90
2018-04-11T04:09:16.427Z,92.90
2018-04-11T04:12:19.768Z,93.20
2018-04-11T04:15:40.973Z,92.90
2018-04-11T04:19:01.992Z,92.90
2018-04-11T04:22:05.345Z,92.90
2018-04-11T04:25:08.792Z,93.00
2018-04-11T04:28:12.149Z,93.00
2018-04-11T04:31:15.577Z,93.10
2018-04-11T04:34:18.919Z,93.10
2018-04-11T04:37:22.268Z,93.10
2018-04-11T04:40:26.398Z,93.00
2018-04-11T04:43:29.805Z,93.00
2018-04-11T04:46:33.214Z,92.90
2018-04-11T04:49:36.588Z,93.00
2018-04-11T04:52:39.965Z,93.00
2018-04-11T04:55:44.078Z,93.30
2018-04-11T04:58:47.438Z,93.00
2018-04-11T05:01:50.789Z,93.00
2018-04-11T05:04:55.021Z,92.90
2018-04-11T05:07:59.208Z,92.80
2018-04-11T05:11:03.324Z,92.70
2018-04-11T05:14:06.683Z,92.70
2018-04-11T05:17:10.051Z,92.70
2018-04-11T05:20:14.259Z,92.50
2018-04-11T05:23:18.373Z,92.40
2018-04-11T05:26:22.504Z,92.40
2018-04-11T05:29:26.617Z,92.20
2018-04-11T05:32:30.732Z,92.20
2018-04-11T05:35:34.816Z,92.30
2018-04-11T05:38:38.166Z,92.30
2018-04-11T05:41:41.631Z,92.20
2018-04-11T05:44:45.771Z,92.20
2018-04-11T05:47:49.911Z,92.30
2018-04-11T05:50:53.275Z,92.30
2018-04-11T05:53:57.395Z,91.90
2018-04-11T05:57:01.541Z,91.90
2018-04-11T06:00:04.878Z,91.90
2018-04-11T06:03:08.324Z,91.80
2018-04-11T06:06:11.720Z,91.90
2018-04-11T06:09:15.859Z,91.70
2018-04-11T06:12:19.420Z,91.70
2018-04-11T06:15:22.785Z,91.50
2018-04-11T06:18:26.243Z,91.40
2018-04-11T06:21:29.609Z,91.20
2018-04-11T06:24:32.965Z,91.00
2018-04-11T06:27:36.334Z,90.80
2018-04-11T06:30:40.461Z,90.80
2018-04-11T06:33:43.931Z,90.80
2018-04-11T06:36:47.288Z,90.50
2018-04-11T06:39:50.652Z,90.40
2018-04-11T06:42:54.785Z,90.30
2018-04-11T06:45:58.183Z,90.20
2018-04-11T06:49:01.582Z,90.10
2018-04-11T06:52:04.933Z,89.50
2018-04-11T06:55:09.817Z,89.80
2018-04-11T06:58:13.190Z,89.70
2018-04-11T07:01:18.125Z,90.00
2018-04-11T07:04:22.262Z,90.00
2018-04-11T07:07:25.669Z,90.00
2018-04-11T07:10:29.048Z,90.00
2018-04-11T07:13:33.192Z,90.00
2018-04-11T07:16:36.689Z,90.00
2018-04-11T07:19:40.045Z,89.10
2018-04-11T07:22:43.463Z,89.40
2018-04-11T07:25:47.648Z,88.90
2018-04-11T07:28:51.003Z,88.90
2018-04-11T07:31:54.358Z,89.00
2018-04-11T07:34:58.488Z,88.70
2018-04-11T07:38:02.637Z,88.90
2018-04-11T07:41:05.992Z,88.90
2018-04-11T07:44:09.344Z,89.10
2018-04-11T07:47:12.829Z,89.20
2018-04-11T07:50:16.239Z,88.80
2018-04-11T07:53:19.611Z,88.50
2018-04-11T07:56:23.738Z,88.80
2018-04-11T07:59:27.878Z,88.90
2018-04-11T08:02:31.236Z,88.80
2018-04-11T08:05:34.591Z,88.70
2018-04-11T08:08:37.956Z,88.60
2018-04-11T08:11:41.315Z,88.70
2018-04-11T08:14:45.558Z,88.90
2018-04-11T08:17:49.693Z,87.80
2018-04-11T08:20:53.057Z,87.80
2018-04-11T08:23:56.540Z,87.70
2018-04-11T08:26:59.900Z,87.70
2018-04-11T08:30:03.257Z,86.80
2018-04-11T08:33:06.629Z,86.90
2018-04-11T08:36:10.026Z,87.10
2018-04-11T08:39:13.381Z,87.50
2018-04-11T08:42:17.515Z,86.70
2018-04-11T08:45:20.861Z,86.50
2018-04-11T08:48:24.216Z,86.80
2018-04-11T08:51:27.603Z,86.40
2018-04-11T08:54:31.753Z,86.50
2018-04-11T08:57:35.288Z,86.50
2018-04-11T09:00:39.424Z,87.00
2018-04-11T09:03:43.633Z,86.90
2018-04-11T09:06:47.790Z,86.50
2018-04-11T09:09:51.192Z,86.40
2018-04-11T09:12:54.562Z,86.90
2018-04-11T09:15:58.692Z,86.50
2018-04-11T09:19:02.055Z,86.30
2018-04-11T09:22:06.923Z,85.60
2018-04-11T09:25:10.276Z,85.60
2018-04-11T09:28:13.631Z,86.10
2018-04-11T09:31:17.087Z,84.90
2018-04-11T09:34:21.247Z,84.00
2018-04-11T09:37:24.608Z,84.00
2018-04-11T09:40:27.973Z,84.20
2018-04-11T09:43:31.327Z,83.40
2018-04-11T09:46:35.463Z,83.40
2018-04-11T09:49:38.820Z,83.40
2018-04-11T09:52:42.186Z,83.50
2018-04-11T09:55:45.654Z,83.00
2018-04-11T09:58:49.055Z,83.20
2018-04-11T10:01:52.404Z,83.50
2018-04-11T10:04:55.805Z,83.50
2018-04-11T10:07:59.262Z,83.80
2018-04-11T10:11:02.638Z,84.50
2018-04-11T10:14:06.770Z,84.80
2018-04-11T10:17:10.206Z,84.80
2018-04-11T10:20:13.685Z,84.80
2018-04-11T10:23:17.071Z,83.50
2018-04-11T10:26:20.483Z,82.40
2018-04-11T10:29:23.855Z,81.10
2018-04-11T10:32:28.001Z,83.00
2018-04-11T10:35:31.357Z,82.90
2018-04-11T10:38:34.745Z,82.60
2018-04-11T10:41:38.109Z,82.50
2018-04-11T10:44:41.472Z,83.00
2018-04-11T10:47:45.605Z,82.90
2018-04-11T10:50:48.977Z,82.90
2018-04-11T10:53:52.332Z,82.70
2018-04-11T10:56:55.698Z,81.50
2018-04-11T10:59:59.890Z,81.10
2018-04-11T11:03:03.271Z,81.10
2018-04-11T11:06:06.627Z,81.30
2018-04-11T11:09:10.030Z,81.90
2018-04-11T11:12:13.379Z,81.20
2018-04-11T11:15:16.825Z,80.50
2018-04-11T11:18:20.200Z,80.80
2018-04-11T11:21:24.328Z,80.80
2018-04-11T11:24:28.500Z,81.60
2018-04-11T11:27:31.861Z,81.60
2018-04-11T11:30:35.225Z,81.20
2018-04-11T11:33:38.587Z,80.00
2018-04-11T11:36:41.976Z,79.50
2018-04-11T11:39:45.330Z,78.50
2018-04-11T11:42:49.450Z,78.40
2018-04-11T11:45:53.592Z,78.10
2018-04-11T11:48:58.017Z,78.10
2018-04-11T11:52:01.424Z,78.20
2018-04-11T11:55:04.783Z,77.10
2018-04-11T11:58:08.960Z,77.90
2018-04-11T12:01:12.315Z,77.90
2018-04-11T12:04:16.445Z,78.10
2018-04-11T12:07:19.847Z,78.20
2018-04-11T12:10:23.212Z,77.60
2018-04-11T12:13:26.629Z,77.50
2018-04-11T12:16:30.845Z,77.60
2018-04-11T12:19:34.965Z,78.00
2018-04-11T12:22:39.079Z,77.70
2018-04-11T12:25:43.199Z,78.00
2018-04-11T12:28:47.340Z,78.30
2018-04-11T12:31:50.737Z,78.30
2018-04-11T12:34:54.111Z,78.30
2018-04-11T12:37:58.334Z,78.80
2018-04-11T12:41:02.462Z,78.50
2018-04-11T12:44:06.030Z,78.40
2018-04-11T12:47:09.401Z,78.40
2018-04-11T12:50:12.755Z,77.80
2018-04-11T12:53:16.887Z,77.30
2018-04-11T12:56:20.263Z,77.30
2018-04-11T12:59:24.497Z,76.90
2018-04-11T13:02:28.081Z,77.00
2018-04-11T13:05:32.226Z,77.30
2018-04-11T13:08:35.834Z,77.30
2018-04-11T13:11:40.115Z,78.10
2018-04-11T13:14:43.477Z,78.00
2018-04-11T13:17:46.840Z,77.50
2018-04-11T13:20:50.951Z,77.80
2018-04-11T13:23:55.090Z,77.50
2018-04-11T13:26:58.452Z,77.50
2018-04-11T13:30:02.556Z,77.40
2018-04-11T13:33:05.916Z,77.40
2018-04-11T13:36:09.321Z,77.20
2018-04-11T13:39:12.767Z,77.50
2018-04-11T13:42:16.137Z,76.40
2018-04-11T13:45:19.507Z,74.90
2018-04-11T13:48:22.892Z,74.80
2018-04-11T13:51:26.286Z,74.60
2018-04-11T13:54:30.428Z,74.90
2018-04-11T13:57:33.921Z,75.00
2018-04-11T14:00:37.305Z,74.70
2018-04-11T14:03:40.719Z,75.40
2018-04-11T14:06:44.074Z,74.50
2018-04-11T14:09:47.437Z,75.30
2018-04-11T14:12:50.848Z,75.30
2018-04-11T14:15:54.511Z,74.40
2018-04-11T14:18:57.901Z,75.20
2018-04-11T14:22:02.057Z,74.40
2018-04-11T14:25:05.413Z,74.40
2018-04-11T14:28:09.721Z,76.10
2018-04-11T14:31:13.108Z,76.00
2018-04-11T14:34:17.227Z,76.40
2018-04-11T14:37:20.630Z,76.60
2018-04-11T14:40:24.021Z,75.70
2018-04-11T14:43:28.164Z,75.50
2018-04-11T14:46:32.329Z,75.30
2018-04-11T14:49:35.686Z,75.30
2018-04-11T14:52:39.839Z,75.10
2018-04-11T14:55:43.209Z,75.10
2018-04-11T14:58:47.355Z,75.10
2018-04-11T15:01:50.734Z,75.10
2018-04-11T15:04:54.091Z,74.50
2018-04-11T15:07:58.306Z,74.30
2018-04-11T15:11:03.178Z,75.50
2018-04-11T15:14:07.412Z,75.60
2018-04-11T15:17:10.805Z,75.60
2018-04-11T15:20:14.218Z,75.50
2018-04-11T15:23:17.631Z,76.40
2018-04-11T15:26:21.751Z,76.60
2018-04-11T15:29:25.132Z,76.60
2018-04-11T15:32:28.492Z,75.50
2018-04-11T15:35:31.863Z,73.40
2018-04-11T15:38:35.441Z,72.30
2018-04-11T15:41:38.818Z,71.70
2018-04-11T15:44:42.941Z,69.80
2018-04-11T15:47:46.304Z,69.90
2018-04-11T15:50:49.833Z,69.20
2018-04-11T15:53:53.982Z,68.80
2018-04-11T15:56:57.354Z,68.80
2018-04-11T16:00:00.769Z,69.00
2018-04-11T16:03:04.158Z,68.60
2018-04-11T16:06:07.608Z,68.30
2018-04-11T16:09:11.023Z,69.60
2018-04-11T16:12:14.437Z,69.30
2018-04-11T16:15:18.613Z,73.50
2018-04-11T16:18:22.009Z,74.20
2018-04-11T16:21:25.376Z,74.10
2018-04-11T16:24:28.996Z,74.90
2018-04-11T16:27:32.458Z,75.60
2018-04-11T16:30:36.609Z,77.90
2018-04-11T16:33:40.022Z,77.70
2018-04-11T16:36:43.413Z,78.60
2018-04-11T16:39:46.796Z,79.20
2018-04-11T16:42:50.935Z,78.30
2018-04-11T16:45:54.376Z,78.30
2018-04-11T16:48:58.496Z,78.50
2018-04-11T16:52:01.881Z,78.50
2018-04-11T16:55:05.280Z,78.20
2018-04-11T16:58:08.663Z,78.10
2018-04-11T17:01:12.097Z,76.50
2018-04-11T17:04:15.481Z,76.80
2018-04-11T17:07:18.844Z,77.20
2018-04-11T17:10:22.234Z,77.30
2018-04-11T17:13:25.584Z,77.10
2018-04-11T17:16:28.941Z,77.60
2018-04-11T17:19:32.340Z,77.60
2018-04-11T17:22:53.543Z,78.90
2018-04-11T17:26:14.852Z,79.80
2018-04-11T17:29:36.737Z,82.00
2018-04-11T17:32:40.415Z,81.90
2018-04-11T17:35:43.797Z,82.40
2018-04-11T17:38:48.038Z,83.50
2018-04-11T17:41:51.407Z,83.50
2018-04-11T17:44:55.558Z,84.10
2018-04-11T17:47:58.962Z,83.90
2018-04-11T17:51:02.493Z,84.80
2018-04-11T17:54:05.872Z,85.20
2018-04-11T17:57:09.236Z,86.00
2018-04-11T18:00:13.368Z,86.90
2018-04-11T18:03:16.761Z,87.00
2018-04-11T18:06:20.164Z,87.60
2018-04-11T18:09:23.547Z,87.80
2018-04-11T18:12:27.891Z,89.40
2018-04-11T18:15:31.395Z,89.40
2018-04-11T18:18:34.766Z,89.60
2018-04-11T18:21:38.890Z,89.80
2018-04-11T18:24:43.029Z,90.00
2018-04-11T18:27:46.395Z,90.00
2018-04-11T18:30:50.543Z,89.00
2018-04-11T18:33:54.000Z,89.00
2018-04-11T18:36:57.449Z,87.90
2018-04-11T18:40:00.957Z,87.30
2018-04-11T18:43:04.332Z,87.40
2018-04-11T18:46:07.733Z,87.20
2018-04-11T18:49:11.150Z,86.60
2018-04-11T18:52:14.512Z,86.80
2018-04-11T18:55:17.887Z,87.10
2018-04-11T18:58:21.259Z,87.30
2018-04-11T19:01:24.652Z,86.80
2018-04-11T19:04:28.026Z,86.70
2018-04-11T19:07:32.187Z,86.80
2018-04-11T19:10:35.528Z,86.80
2018-04-11T19:13:39.683Z,86.00
2018-04-11T19:16:43.082Z,85.90
2018-04-11T19:19:46.524Z,85.70
2018-04-11T19:22:50.662Z,85.30
2018-04-11T19:25:54.818Z,85.40
2018-04-11T19:28:58.176Z,85.30
2018-04-11T19:32:01.545Z,85.30
2018-04-11T19:35:04.918Z,84.90
2018-04-11T19:38:08.349Z,84.70
2018-04-11T19:41:11.721Z,84.50
2018-04-11T19:44:15.106Z,84.70
2018-04-11T19:47:18.485Z,84.90
2018-04-11T19:50:22.637Z,85.10
2018-04-11T19:53:26.011Z,85.10
2018-04-11T19:56:30.178Z,85.30
2018-04-11T19:59:33.783Z,85.30
2018-04-11T20:02:37.156Z,86.10
2018-04-11T20:05:40.555Z,86.60
2018-04-11T20:08:43.935Z,86.70
2018-04-11T20:11:47.325Z,87.30
2018-04-11T20:14:51.466Z,87.60
2018-04-11T20:17:54.817Z,87.50
2018-04-11T20:20:58.991Z,88.00
2018-04-11T20:24:03.117Z,87.90
2018-04-11T20:27:06.494Z,87.90
2018-04-11T20:30:10.004Z,87.70
2018-04-11T20:33:13.389Z,87.50
2018-04-11T20:36:16.758Z,87.60
2018-04-11T20:39:20.131Z,87.20
2018-04-11T20:42:23.500Z,87.40
2018-04-11T20:45:26.835Z,86.90
2018-04-11T20:48:30.291Z,87.00
2018-04-11T20:51:33.679Z,86.90
2018-04-11T20:54:37.792Z,86.60
2018-04-11T20:57:41.950Z,86.20
2018-04-11T21:00:45.337Z,86.10
2018-04-11T21:03:48.702Z,85.70
2018-04-11T21:06:52.832Z,85.40
2018-04-11T21:09:56.947Z,85.40
2018-04-11T21:13:01.071Z,85.10
2018-04-11T21:16:04.439Z,85.00
2018-04-11T21:19:07.946Z,84.80
2018-04-11T21:22:12.291Z,84.20
2018-04-11T21:25:15.715Z,84.20
2018-04-11T21:28:19.846Z,84.30
2018-04-11T21:31:23.226Z,84.30
2018-04-11T21:34:26.602Z,84.50
2018-04-11T21:37:30.739Z,84.70
2018-04-11T21:40:34.090Z,84.60
2018-04-11T21:43:38.989Z,84.40
2018-04-11T21:46:42.355Z,84.40
2018-04-11T21:49:46.651Z,84.60
2018-04-11T21:52:50.009Z,84.60
2018-04-11T21:55:53.968Z,84.20
2018-04-11T21:58:57.474Z,84.00
2018-04-11T22:02:02.014Z,84.00
2018-04-11T22:05:05.559Z,83.90
2018-04-11T22:08:10.255Z,83.90
2018-04-11T22:11:13.874Z,83.90
2018-04-11T22:14:17.635Z,84.10
2018-04-11T22:17:21.392Z,83.80
2018-04-11T22:20:25.107Z,83.70
2018-04-11T22:23:28.970Z,83.90
2018-04-11T22:26:32.497Z,83.60
2018-04-11T22:29:35.902Z,83.50
2018-04-11T22:32:39.255Z,83.20
2018-04-11T22:35:42.700Z,83.30
2018-04-11T22:38:46.097Z,83.40
2018-04-11T22:41:49.686Z,83.20
2018-04-11T22:44:53.851Z,82.80
2018-04-11T22:47:57.200Z,82.80
2018-04-11T22:51:01.357Z,83.10
2018-04-11T22:54:04.719Z,83.10
2018-04-11T22:57:08.833Z,83.00
2018-04-11T23:00:13.064Z,83.40
2018-04-11T23:03:17.171Z,83.20
2018-04-11T23:06:21.628Z,83.10
2018-04-11T23:09:25.282Z,83.10
2018-04-11T23:12:28.767Z,83.30
2018-04-11T23:15:32.883Z,83.20
2018-04-11T23:18:36.256Z,83.40
2018-04-11T23:21:39.610Z,83.20
2018-04-11T23:24:43.033Z,83.10
2018-04-11T23:27:46.540Z,83.00
2018-04-11T23:30:50.053Z,83.30
2018-04-11T23:33:53.408Z,83.30
2018-04-11T23:36:56.764Z,83.60
2018-04-11T23:40:00.121Z,83.50
2018-04-11T23:43:04.246Z,83.50
2018-04-11T23:46:08.515Z,83.20
2018-04-11T23:49:11.869Z,83.30
2018-04-11T23:52:15.234Z,83.60
2018-04-11T23:55:19.354Z,84.10
2018-04-11T23:58:22.716Z,84.20
